createdAt,value
2018-07-21T00:00:43.741Z,13.58
2018-07-21T00:03:13.161Z,14.15
2018-07-21T00:05:42.602Z,15.00
2018-07-21T00:08:11.931Z,13.72
2018-07-21T00:10:41.301Z,13.03
2018-07-21T00:13:10.786Z,18.45
2018-07-21T00:15:40.202Z,16.32
2018-07-21T00:18:09.521Z,13.72
2018-07-21T00:20:38.905Z,13.55
2018-07-21T00:23:08.449Z,13.40
2018-07-21T00:25:37.899Z,15.18
2018-07-21T00:28:07.272Z,14.25
2018-07-21T00:30:36.551Z,13.50
2018-07-21T00:33:05.849Z,13.18
2018-07-21T00:35:35.790Z,12.70
2018-07-21T00:38:05.218Z,12.00
2018-07-21T00:40:34.614Z,13.15
2018-07-21T00:43:04.007Z,15.00
2018-07-21T00:45:33.371Z,15.72
2018-07-21T00:48:03.253Z,13.98
2018-07-21T00:50:33.637Z,15.35
2018-07-21T00:53:03.042Z,14.80
2018-07-21T00:55:32.387Z,12.47
2018-07-21T00:58:01.807Z,13.05
2018-07-21T01:00:31.058Z,16.42
2018-07-21T01:03:00.484Z,12.75
2018-07-21T01:05:29.856Z,13.13
2018-07-21T01:07:59.177Z,13.43
2018-07-21T01:10:28.440Z,13.58
2018-07-21T01:12:57.707Z,15.55
2018-07-21T01:15:27.167Z,18.12
2018-07-21T01:17:56.489Z,16.23
2018-07-21T01:20:26.074Z,13.20
2018-07-21T01:22:55.470Z,14.35
2018-07-21T01:25:24.902Z,14.38
2018-07-21T01:27:54.442Z,16.67
2018-07-21T01:30:23.730Z,14.75
2018-07-21T01:32:53.206Z,14.98
2018-07-21T01:35:22.746Z,15.40
2018-07-21T01:37:52.094Z,17.87
2018-07-21T01:40:28.475Z,12.28
2018-07-21T01:42:57.898Z,13.88
2018-07-21T01:45:27.362Z,14.05
2018-07-21T01:47:56.725Z,17.23
2018-07-21T01:50:25.975Z,15.95
2018-07-21T01:52:55.313Z,16.00
2018-07-21T01:55:24.615Z,19.27
2018-07-21T01:57:53.929Z,15.75
2018-07-21T02:00:23.771Z,15.08
2018-07-21T02:02:53.118Z,17.85
2018-07-21T02:05:22.519Z,17.35
2018-07-21T02:07:51.800Z,16.35
2018-07-21T02:10:21.314Z,15.88
2018-07-21T02:12:50.599Z,15.98
2018-07-21T02:15:19.903Z,21.23
2018-07-21T02:17:49.557Z,12.28
2018-07-21T02:20:18.930Z,13.40
2018-07-21T02:22:48.243Z,18.32
2018-07-21T02:25:17.631Z,21.55
2018-07-21T02:27:46.986Z,16.57
2018-07-21T02:30:16.454Z,16.32
2018-07-21T02:32:45.750Z,16.00
2018-07-21T02:35:15.118Z,19.52
2018-07-21T02:37:44.450Z,15.98
2018-07-21T02:40:13.856Z,22.55
2018-07-21T02:42:43.139Z,16.60
2018-07-21T02:45:12.536Z,16.93
2018-07-21T02:47:41.872Z,16.75
2018-07-21T02:50:11.368Z,15.88
2018-07-21T02:52:40.934Z,15.80
2018-07-21T02:55:10.315Z,24.25
2018-07-21T02:57:39.717Z,17.05
2018-07-21T03:00:09.191Z,17.82
2018-07-21T03:02:38.677Z,15.98
2018-07-21T03:05:08.037Z,17.98
2018-07-21T03:07:37.457Z,19.82
2018-07-21T03:10:06.995Z,19.92
2018-07-21T03:12:36.341Z,16.30
2018-07-21T03:15:05.947Z,15.50
2018-07-21T03:17:35.303Z,20.40
2018-07-21T03:20:05.002Z,20.43
2018-07-21T03:22:34.403Z,16.42
2018-07-21T03:25:03.818Z,17.00
2018-07-21T03:27:33.102Z,16.85
2018-07-21T03:30:03.124Z,18.00
2018-07-21T03:32:32.489Z,15.32
2018-07-21T03:35:02.045Z,17.67
2018-07-21T03:37:31.516Z,15.23
2018-07-21T03:40:00.838Z,15.93
2018-07-21T03:42:30.122Z,16.67
2018-07-21T03:44:59.626Z,17.40
2018-07-21T03:47:29.017Z,15.53
2018-07-21T03:49:58.480Z,16.90
2018-07-21T03:52:27.748Z,15.18
2018-07-21T03:54:57.243Z,17.30
2018-07-21T03:57:26.553Z,17.62
2018-07-21T03:59:55.906Z,20.15
2018-07-21T04:02:25.451Z,19.23
2018-07-21T04:04:54.801Z,15.08
2018-07-21T04:07:24.194Z,17.07
2018-07-21T04:13:24.831Z,14.85
2018-07-21T04:15:54.228Z,16.00
2018-07-21T04:21:45.042Z,16.82
2018-07-21T04:31:16.129Z,15.28
2018-07-21T04:33:45.726Z,15.58
2018-07-21T04:36:15.344Z,16.45
2018-07-21T04:38:44.881Z,13.98
2018-07-21T04:41:14.300Z,17.30
2018-07-21T04:43:43.714Z,15.48
2018-07-21T04:46:13.070Z,14.90
2018-07-21T04:48:42.510Z,14.30
2018-07-21T04:51:12.015Z,15.18
2018-07-21T04:53:42.558Z,15.60
2018-07-21T04:56:12.031Z,14.95
2018-07-21T04:58:41.555Z,19.17
2018-07-21T05:01:11.058Z,23.70
2018-07-21T05:03:40.516Z,16.57
2018-07-21T05:06:10.065Z,20.92
2018-07-21T05:08:39.478Z,17.12
2018-07-21T05:11:08.862Z,19.05
2018-07-21T05:13:38.242Z,14.68
2018-07-21T05:16:07.803Z,14.58
2018-07-21T05:18:37.240Z,14.73
2018-07-21T05:21:06.654Z,17.67
2018-07-21T05:23:36.126Z,14.75
2018-07-21T05:26:05.741Z,16.02
2018-07-21T05:28:35.235Z,15.80
2018-07-21T05:31:04.597Z,16.60
2018-07-21T05:33:33.879Z,17.87
2018-07-21T05:36:03.490Z,16.02
2018-07-21T05:38:33.561Z,17.30
2018-07-21T05:41:03.129Z,15.30
2018-07-21T05:43:32.652Z,19.05
2018-07-21T05:46:03.311Z,19.95
2018-07-21T05:48:32.932Z,17.77
2018-07-21T05:51:04.136Z,17.50
2018-07-21T05:53:33.493Z,17.07
2018-07-21T05:56:02.691Z,16.52
2018-07-21T05:58:32.678Z,19.62
2018-07-21T06:01:02.048Z,16.48
2018-07-21T06:03:31.592Z,18.55
2018-07-21T06:06:03.208Z,17.00
2018-07-21T06:08:32.625Z,17.05
2018-07-21T06:11:02.175Z,20.35
2018-07-21T06:13:31.567Z,16.00
2018-07-21T06:16:00.993Z,15.50
2018-07-21T06:18:30.288Z,19.48
2018-07-21T06:20:59.844Z,20.00
2018-07-21T06:23:29.232Z,16.45
2018-07-21T06:25:58.500Z,16.62
2018-07-21T06:28:28.001Z,16.25
2018-07-21T06:30:57.386Z,17.00
2018-07-21T06:33:26.684Z,18.90
2018-07-21T06:35:55.904Z,15.72
2018-07-21T06:38:25.206Z,16.07
2018-07-21T06:40:54.641Z,18.05
2018-07-21T06:43:24.153Z,17.25
2018-07-21T06:45:53.551Z,16.82
2018-07-21T06:48:26.490Z,18.60
2018-07-21T06:50:55.829Z,18.85
2018-07-21T06:53:25.209Z,16.52
2018-07-21T06:55:54.326Z,15.60
2018-07-21T06:58:23.735Z,15.90
2018-07-21T07:00:53.007Z,15.72
2018-07-21T07:03:22.229Z,16.48
2018-07-21T07:05:51.891Z,16.80
2018-07-21T07:08:21.181Z,15.23
2018-07-21T07:10:50.573Z,17.10
2018-07-21T07:13:19.945Z,13.95
2018-07-21T07:15:49.427Z,12.05
2018-07-21T07:18:18.704Z,13.38
2018-07-21T07:20:48.095Z,12.35
2018-07-21T07:23:17.606Z,16.27
2018-07-21T07:25:47.111Z,12.47
2018-07-21T07:28:16.379Z,13.88
2018-07-21T07:30:46.298Z,13.70
2018-07-21T07:33:15.805Z,12.13
2018-07-21T07:35:45.180Z,10.53
2018-07-21T07:38:14.499Z,11.25
2018-07-21T07:40:43.808Z,11.20
2018-07-21T07:43:13.288Z,10.80
2018-07-21T07:45:42.649Z,10.95
2018-07-21T07:48:12.422Z,10.53
2018-07-21T07:50:41.731Z,13.60
2018-07-21T07:53:11.181Z,9.58
2018-07-21T07:55:40.394Z,10.35
2018-07-21T07:58:09.860Z,14.83
2018-07-21T08:00:39.129Z,9.43
2018-07-21T08:03:08.379Z,14.73
2018-07-21T08:05:37.791Z,14.35
2018-07-21T08:08:07.265Z,10.00
2018-07-21T08:10:36.694Z,9.70
2018-07-21T08:13:06.023Z,10.90
2018-07-21T08:15:35.331Z,9.80
2018-07-21T08:18:04.782Z,10.32
2018-07-21T08:20:34.134Z,10.30
2018-07-21T08:23:03.466Z,11.03
2018-07-21T08:25:32.756Z,13.55
2018-07-21T08:28:02.138Z,13.85
2018-07-21T08:30:31.721Z,8.73
2018-07-21T08:33:01.879Z,12.30
2018-07-21T08:35:31.217Z,10.53
2018-07-21T08:38:00.628Z,10.70
2018-07-21T08:40:29.890Z,9.50
2018-07-21T08:42:59.211Z,9.83
2018-07-21T08:45:28.639Z,8.78
2018-07-21T08:47:57.952Z,10.90
2018-07-21T08:50:27.135Z,10.08
2018-07-21T08:52:56.378Z,8.65
2018-07-21T08:55:25.825Z,10.65
2018-07-21T08:57:55.448Z,10.90
2018-07-21T09:00:24.696Z,9.15
2018-07-21T09:02:54.174Z,8.80
2018-07-21T09:05:23.683Z,9.20
2018-07-21T09:07:52.933Z,8.63
2018-07-21T09:10:22.310Z,8.65
2018-07-21T09:12:53.717Z,10.15
2018-07-21T09:15:23.318Z,10.45
2018-07-21T09:17:52.679Z,8.58
2018-07-21T09:20:22.178Z,9.83
2018-07-21T09:22:51.624Z,11.75
2018-07-21T09:25:20.864Z,8.55
2018-07-21T09:27:50.166Z,8.95
2018-07-21T09:30:20.348Z,8.58
2018-07-21T09:32:49.829Z,8.30
2018-07-21T09:35:19.067Z,7.95
2018-07-21T09:37:48.433Z,9.15
2018-07-21T09:40:17.978Z,8.78
2018-07-21T09:42:47.438Z,11.83
2018-07-21T09:45:17.745Z,13.43
2018-07-21T09:47:47.069Z,8.98
2018-07-21T09:50:16.606Z,10.15
2018-07-21T09:52:46.803Z,10.23
2018-07-21T09:55:16.341Z,9.08
2018-07-21T09:57:45.770Z,12.43
2018-07-21T10:00:20.353Z,15.60
2018-07-21T10:02:49.851Z,9.70
2018-07-21T10:05:19.149Z,11.35
2018-07-21T10:07:49.117Z,12.37
2018-07-21T10:10:18.507Z,8.70
2018-07-21T10:12:48.793Z,16.02
2018-07-21T10:15:18.169Z,9.48
2018-07-21T10:17:47.595Z,10.28
2018-07-21T10:20:17.182Z,10.05
2018-07-21T10:22:46.624Z,10.32
2018-07-21T10:25:22.207Z,9.78
2018-07-21T10:27:55.871Z,13.40
2018-07-21T10:30:25.179Z,10.23
2018-07-21T10:32:55.329Z,11.05
2018-07-21T10:35:24.789Z,9.08
2018-07-21T10:37:54.268Z,9.50
2018-07-21T10:40:24.772Z,8.08
2018-07-21T10:42:54.057Z,11.95
2018-07-21T10:45:23.590Z,9.43
2018-07-21T10:47:53.140Z,10.70
2018-07-21T10:50:22.496Z,14.33
2018-07-21T10:52:51.957Z,9.65
2018-07-21T10:55:21.701Z,12.07
2018-07-21T10:57:51.445Z,8.98
2018-07-21T11:00:20.845Z,12.18
2018-07-21T11:02:50.125Z,9.33
2018-07-21T11:05:19.574Z,8.70
2018-07-21T11:07:48.930Z,9.23
2018-07-21T11:10:18.357Z,10.95
2018-07-21T11:12:47.602Z,9.23
2018-07-21T11:15:17.696Z,14.07
2018-07-21T11:17:47.342Z,12.37
2018-07-21T11:20:16.802Z,10.08
2018-07-21T11:22:46.186Z,9.18
2018-07-21T11:25:15.771Z,11.08
2018-07-21T11:27:45.043Z,9.05
2018-07-21T11:30:14.497Z,9.20
2018-07-21T11:32:43.966Z,10.65
2018-07-21T11:35:13.353Z,8.83
2018-07-21T11:37:43.524Z,8.20
2018-07-21T11:40:12.761Z,8.25
2018-07-21T11:42:42.082Z,9.40
2018-07-21T11:45:11.322Z,8.05
2018-07-21T11:47:40.606Z,8.05
2018-07-21T11:50:09.887Z,7.95
2018-07-21T11:52:39.356Z,7.97
2018-07-21T11:55:08.591Z,7.97
2018-07-21T11:57:38.763Z,7.97
2018-07-21T12:00:08.147Z,8.80
2018-07-21T12:02:38.856Z,8.38
2018-07-21T12:05:08.587Z,7.12
2018-07-21T12:07:39.158Z,8.50
2018-07-21T12:10:08.509Z,7.58
2018-07-21T12:12:37.894Z,7.50
2018-07-21T12:15:08.128Z,6.53
2018-07-21T12:17:45.582Z,6.35
2018-07-21T12:20:15.424Z,7.40
2018-07-21T12:22:56.135Z,9.45
2018-07-21T12:25:26.751Z,9.30
2018-07-21T12:27:57.454Z,6.90
2018-07-21T12:30:27.859Z,7.00
2018-07-21T12:32:59.477Z,6.17
2018-07-21T12:35:38.690Z,6.17
2018-07-21T12:43:52.235Z,6.45
2018-07-21T12:46:23.506Z,6.97
2018-07-21T12:48:53.718Z,7.12
2018-07-21T12:51:23.513Z,6.90
2018-07-21T12:53:53.568Z,8.75
2018-07-21T12:56:39.380Z,6.55
2018-07-21T12:59:15.126Z,5.75
2018-07-21T13:01:45.332Z,7.80
2018-07-21T13:04:15.669Z,5.87
2018-07-21T13:06:45.813Z,5.80
2018-07-21T13:09:15.125Z,6.97
2018-07-21T13:11:44.765Z,6.20
2018-07-21T13:14:14.843Z,7.08
2018-07-21T13:16:44.286Z,6.45
2018-07-21T13:22:03.445Z,6.70
2018-07-21T13:24:32.785Z,6.22
2018-07-21T13:27:02.287Z,6.83
2018-07-21T13:29:31.655Z,9.15
2018-07-21T13:32:01.008Z,5.85
2018-07-21T13:34:30.504Z,6.35
2018-07-21T13:36:59.995Z,7.58
2018-07-21T13:39:29.706Z,6.30
2018-07-21T13:41:59.179Z,5.87
2018-07-21T13:44:28.614Z,6.33
2018-07-21T13:46:57.956Z,9.23
2018-07-21T13:49:27.474Z,9.13
2018-07-21T13:51:56.828Z,6.50
2018-07-21T13:54:26.206Z,9.20
2018-07-21T13:56:55.736Z,6.87
2018-07-21T13:59:25.075Z,10.68
2018-07-21T14:01:54.462Z,6.47
2018-07-21T14:04:23.821Z,8.48
2018-07-21T14:06:53.215Z,6.70
2018-07-21T14:09:22.443Z,6.78
2018-07-21T14:11:51.834Z,6.67
2018-07-21T14:14:21.129Z,7.55
2018-07-21T14:16:50.684Z,7.67
2018-07-21T14:19:19.997Z,6.83
2018-07-21T14:21:49.414Z,6.28
2018-07-21T14:24:18.842Z,6.95
2018-07-21T14:26:48.352Z,13.20
2018-07-21T14:29:19.526Z,11.30
2018-07-21T14:31:48.944Z,6.08
2018-07-21T14:34:18.709Z,6.65
2018-07-21T14:36:48.206Z,6.72
2018-07-21T14:39:17.530Z,6.42
2018-07-21T14:41:46.978Z,6.53
2018-07-21T14:44:16.455Z,6.65
2018-07-21T14:46:45.956Z,8.25
2018-07-21T14:49:15.393Z,10.38
2018-07-21T14:51:44.816Z,10.48
2018-07-21T14:54:14.106Z,9.53
2018-07-21T14:56:43.538Z,9.80
2018-07-21T14:59:12.971Z,8.23
2018-07-21T15:01:42.370Z,10.05
2018-07-21T15:04:11.722Z,9.60
2018-07-21T15:06:42.299Z,11.97
2018-07-21T15:09:12.757Z,10.55
2018-07-21T15:11:42.430Z,11.25
2018-07-21T15:14:12.049Z,8.88
2018-07-21T15:16:41.656Z,8.73
2018-07-21T15:19:10.986Z,8.98
2018-07-21T15:21:40.438Z,12.23
2018-07-21T15:24:09.895Z,7.17
2018-07-21T15:26:39.247Z,8.60
2018-07-21T15:29:08.732Z,8.28
2018-07-21T15:31:38.181Z,6.40
2018-07-21T15:34:07.706Z,6.15
2018-07-21T15:36:37.101Z,6.60
2018-07-21T15:39:08.655Z,6.37
2018-07-21T15:41:38.246Z,5.00
2018-07-21T15:44:07.726Z,11.05
2018-07-21T15:46:37.111Z,9.60
2018-07-21T15:49:06.406Z,10.30
2018-07-21T15:51:36.002Z,7.10
2018-07-21T15:54:05.374Z,7.40
2018-07-21T15:56:34.735Z,7.22
2018-07-21T15:59:04.867Z,6.22
2018-07-21T16:01:34.397Z,9.28
2018-07-21T16:04:03.921Z,5.87
2018-07-21T16:06:33.179Z,6.37
2018-07-21T16:09:02.883Z,8.73
2018-07-21T16:11:32.375Z,6.60
2018-07-21T16:14:01.895Z,7.78
2018-07-21T16:16:31.145Z,9.73
2018-07-21T16:19:00.788Z,8.63
2018-07-21T16:21:30.426Z,14.47
2018-07-21T16:24:03.571Z,9.18
2018-07-21T16:26:33.093Z,8.15
2018-07-21T16:29:02.558Z,10.43
2018-07-21T16:31:31.915Z,11.70
2018-07-21T16:34:01.310Z,20.57
2018-07-21T16:36:31.781Z,17.90
2018-07-21T16:39:01.217Z,35.80
2018-07-21T16:41:31.258Z,26.07
2018-07-21T16:44:00.713Z,27.70
2018-07-21T16:46:29.983Z,17.40
2018-07-21T16:48:59.286Z,21.75
2018-07-21T16:51:28.769Z,20.12
2018-07-21T16:53:58.697Z,23.67
2018-07-21T16:56:27.991Z,23.80
2018-07-21T16:58:57.507Z,25.45
2018-07-21T17:01:26.638Z,28.10
2018-07-21T17:03:55.801Z,28.32
2018-07-21T17:06:25.158Z,31.90
2018-07-21T17:08:54.542Z,33.58
2018-07-21T17:11:23.974Z,25.35
2018-07-21T17:13:53.430Z,25.27
2018-07-21T17:16:26.491Z,27.70
2018-07-21T17:18:55.816Z,28.27
2018-07-21T17:21:25.206Z,25.20
2018-07-21T17:23:54.542Z,26.33
2018-07-21T17:26:23.745Z,25.60
2018-07-21T17:28:53.180Z,31.90
2018-07-21T17:31:23.164Z,26.90
2018-07-21T17:33:52.587Z,31.00
2018-07-21T17:36:21.774Z,31.37
2018-07-21T17:38:51.023Z,32.20
2018-07-21T17:41:20.179Z,31.25
2018-07-21T17:43:49.401Z,34.67
2018-07-21T17:46:18.726Z,32.88
2018-07-21T17:48:48.641Z,33.30
2018-07-21T17:51:17.799Z,38.78
2018-07-21T17:53:47.047Z,34.00
2018-07-21T17:56:16.296Z,32.67
2018-07-21T17:58:45.702Z,33.45
2018-07-21T18:01:15.082Z,32.70
2018-07-21T18:03:44.347Z,34.83
2018-07-21T18:06:12.977Z,35.95
2018-07-21T18:08:42.334Z,33.95
2018-07-21T18:11:11.721Z,35.38
2018-07-21T18:13:42.113Z,34.33
2018-07-21T18:16:11.262Z,29.52
2018-07-21T18:18:40.679Z,29.42
2018-07-21T18:21:09.913Z,30.40
2018-07-21T18:23:42.486Z,29.35
2018-07-21T18:26:11.505Z,33.00
2018-07-21T18:28:40.949Z,32.35
2018-07-21T18:31:10.343Z,34.60
2018-07-21T18:33:39.796Z,31.37
2018-07-21T18:36:10.393Z,31.95
2018-07-21T18:38:40.347Z,30.27
2018-07-21T18:41:10.531Z,30.68
2018-07-21T18:43:40.303Z,32.13
2018-07-21T18:46:10.784Z,38.40
2018-07-21T18:48:40.235Z,39.20
2018-07-21T18:51:09.967Z,36.05
2018-07-21T18:53:39.583Z,36.93
2018-07-21T18:56:09.295Z,35.38
2018-07-21T18:58:38.894Z,28.85
2018-07-21T19:01:08.891Z,32.65
2018-07-21T19:03:38.442Z,28.47
2018-07-21T19:06:07.847Z,26.85
2018-07-21T19:08:44.785Z,25.50
2018-07-21T19:11:14.393Z,26.52
2018-07-21T19:13:43.798Z,26.70
2018-07-21T19:16:18.289Z,26.95
2018-07-21T19:18:47.885Z,28.77
2018-07-21T19:21:18.229Z,27.52
2018-07-21T19:23:48.897Z,26.25
2018-07-21T19:26:23.403Z,26.33
2018-07-21T19:28:53.211Z,26.15
2018-07-21T19:31:22.835Z,28.25
2018-07-21T19:33:52.227Z,27.87
2018-07-21T19:36:21.728Z,28.50
2018-07-21T19:38:51.622Z,37.48
2018-07-21T19:41:26.258Z,31.97
2018-07-21T19:43:56.009Z,32.35
2018-07-21T19:46:25.576Z,32.15
2018-07-21T19:48:54.964Z,34.92
2018-07-21T19:51:24.750Z,38.23
2018-07-21T19:53:54.145Z,39.33
2018-07-21T19:56:23.649Z,35.55
2018-07-21T19:58:53.180Z,31.82
2018-07-21T20:01:25.975Z,34.92
2018-07-21T20:03:55.621Z,35.40
2018-07-21T20:06:25.343Z,33.20
2018-07-21T20:08:55.173Z,30.88
2018-07-21T20:11:24.786Z,34.75
2018-07-21T20:13:54.665Z,27.30
2018-07-21T20:16:27.784Z,27.75
2018-07-21T20:18:57.765Z,28.47
2018-07-21T20:21:27.547Z,28.30
2018-07-21T20:23:57.378Z,28.52
2018-07-21T20:26:27.385Z,28.87
2018-07-21T20:28:57.156Z,28.40
2018-07-21T20:31:27.403Z,29.12
2018-07-21T20:38:18.925Z,25.55
2018-07-21T20:40:48.621Z,26.07
2018-07-21T20:43:18.590Z,28.87
2018-07-21T20:46:03.780Z,37.55
2018-07-21T20:52:18.631Z,44.05
2018-07-21T20:54:48.442Z,46.80
2018-07-21T20:57:18.516Z,46.02
2018-07-21T20:59:48.872Z,45.30
2018-07-21T21:02:19.994Z,45.25
2018-07-21T21:04:50.175Z,33.73
2018-07-21T21:07:19.986Z,34.75
2018-07-21T21:09:51.540Z,39.53
2018-07-21T21:12:21.549Z,38.98
2018-07-21T21:14:51.375Z,36.73
2018-07-21T21:17:21.186Z,35.38
2018-07-21T21:19:51.474Z,37.20
2018-07-21T21:22:25.216Z,32.67
2018-07-21T21:24:57.102Z,35.03
2018-07-21T21:27:27.329Z,28.90
2018-07-21T21:29:57.543Z,28.35
2018-07-21T21:32:28.179Z,27.25
2018-07-21T21:34:58.214Z,25.12
2018-07-21T21:37:30.185Z,23.83
2018-07-21T21:40:01.732Z,22.52
2018-07-21T21:42:31.675Z,22.35
2018-07-21T21:45:02.369Z,27.37
2018-07-21T21:47:32.188Z,20.12
2018-07-21T21:50:01.797Z,20.32
2018-07-21T21:52:31.410Z,19.82
2018-07-21T21:55:01.205Z,20.23
2018-07-21T21:57:31.597Z,20.27
2018-07-21T22:00:01.365Z,20.02
2018-07-21T22:02:31.463Z,20.90
2018-07-21T22:05:01.178Z,20.57
2018-07-21T22:07:30.611Z,20.45
2018-07-21T22:09:59.967Z,20.08
2018-07-21T22:12:29.409Z,18.67
2018-07-21T22:14:58.852Z,18.52
2018-07-21T22:17:28.312Z,16.17
2018-07-21T22:19:57.614Z,18.00
2018-07-21T22:22:27.199Z,18.17
2018-07-21T22:24:56.739Z,17.27
2018-07-21T22:27:26.154Z,17.40
2018-07-21T22:29:55.552Z,16.70
2018-07-21T22:32:24.896Z,16.75
2018-07-21T22:34:54.277Z,16.35
2018-07-21T22:37:23.782Z,16.42
2018-07-21T22:39:53.270Z,15.38
2018-07-21T22:42:22.755Z,15.68
2018-07-21T22:44:52.105Z,17.25
2018-07-21T22:47:21.498Z,16.07
2018-07-21T22:49:50.927Z,16.80
2018-07-21T22:52:20.219Z,16.27
2018-07-21T22:54:49.522Z,16.82
2018-07-21T22:57:19.046Z,16.45
2018-07-21T22:59:48.322Z,16.07
2018-07-21T23:02:17.913Z,15.43
2018-07-21T23:04:47.177Z,17.23
2018-07-21T23:07:16.485Z,16.97
2018-07-21T23:09:45.835Z,17.57
2018-07-21T23:12:15.208Z,16.37
2018-07-21T23:14:44.615Z,15.70
2018-07-21T23:17:13.922Z,15.23
2018-07-21T23:19:43.267Z,15.93
2018-07-21T23:22:12.561Z,16.40
2018-07-21T23:24:41.950Z,16.02
2018-07-21T23:27:11.506Z,17.30
2018-07-21T23:29:40.949Z,13.93
2018-07-21T23:32:10.425Z,14.80
2018-07-21T23:34:39.961Z,15.18
2018-07-21T23:37:09.129Z,14.87
2018-07-21T23:39:38.641Z,15.20
2018-07-21T23:42:08.157Z,16.82
2018-07-21T23:44:37.388Z,17.17
2018-07-21T23:47:06.789Z,14.33
2018-07-21T23:49:36.254Z,17.90
2018-07-21T23:52:05.538Z,14.80
2018-07-21T23:54:34.967Z,15.55
2018-07-21T23:57:04.527Z,14.68
2018-07-21T23:59:33.942Z,15.10
